createdAt,value
2018-09-05T00:00:58.764Z,17.92
2018-09-05T00:01:58.770Z,17.87
2018-09-05T00:02:58.776Z,17.90
2018-09-05T00:03:58.799Z,17.89
2018-09-05T00:04:58.780Z,17.85
2018-09-05T00:05:58.706Z,17.83
2018-09-05T00:06:58.734Z,17.80
2018-09-05T00:07:58.717Z,17.82
2018-09-05T00:08:58.728Z,17.85
2018-09-05T00:09:58.711Z,17.79
2018-09-05T00:10:58.677Z,17.80
2018-09-05T00:11:58.640Z,17.82
2018-09-05T00:12:58.713Z,17.85
2018-09-05T00:13:58.715Z,17.82
2018-09-05T00:14:58.659Z,17.80
2018-09-05T00:15:58.598Z,17.83
2018-09-05T00:16:58.646Z,17.80
2018-09-05T00:17:58.599Z,17.82
2018-09-05T00:18:58.565Z,17.76
2018-09-05T00:19:58.597Z,17.80
2018-09-05T00:20:58.632Z,17.83
2018-09-05T00:21:58.560Z,17.82
2018-09-05T00:22:58.533Z,17.78
2018-09-05T00:23:58.515Z,17.79
2018-09-05T00:24:58.494Z,17.63
2018-09-05T00:25:58.574Z,17.68
2018-09-05T00:26:58.646Z,17.67
2018-09-05T00:27:58.490Z,17.71
2018-09-05T00:28:58.456Z,17.71
2018-09-05T00:29:58.462Z,17.65
2018-09-05T00:30:58.458Z,17.65
2018-09-05T00:31:58.433Z,17.74
2018-09-05T00:32:58.460Z,17.70
2018-09-05T00:33:58.393Z,17.67
2018-09-05T00:34:58.411Z,17.72
2018-09-05T00:35:58.389Z,17.57
2018-09-05T00:36:58.393Z,17.74
2018-09-05T00:37:58.396Z,17.78
2018-09-05T00:38:58.481Z,17.59
2018-09-05T00:39:58.347Z,17.54
2018-09-05T00:40:58.319Z,17.60
2018-09-05T00:41:58.345Z,17.60
2018-09-05T00:42:58.368Z,17.64
2018-09-05T00:43:58.302Z,17.65
2018-09-05T00:44:58.484Z,17.63
2018-09-05T00:45:58.356Z,17.67
2018-09-05T00:46:58.330Z,17.64
2018-09-05T00:47:58.269Z,17.63
2018-09-05T00:48:58.253Z,17.51
2018-09-05T00:49:58.243Z,17.59
2018-09-05T00:50:58.259Z,17.48
2018-09-05T00:51:58.212Z,17.42
2018-09-05T00:52:58.196Z,17.34
2018-09-05T00:53:58.178Z,17.46
2018-09-05T00:54:58.177Z,17.45
2018-09-05T00:55:58.356Z,17.45
2018-09-05T00:56:58.217Z,17.34
2018-09-05T00:57:58.148Z,17.44
2018-09-05T00:58:58.134Z,17.49
2018-09-05T00:59:58.365Z,17.56
2018-09-05T01:00:58.122Z,17.46
2018-09-05T01:01:58.688Z,17.51
2018-09-05T01:02:58.176Z,17.54
2018-09-05T01:03:58.112Z,17.41
2018-09-05T01:04:58.093Z,17.48
2018-09-05T01:05:58.069Z,17.41
2018-09-05T01:06:58.042Z,17.39
2018-09-05T01:07:58.037Z,17.49
2018-09-05T01:08:58.029Z,17.48
2018-09-05T01:09:57.994Z,17.38
2018-09-05T01:10:58.025Z,17.42
2018-09-05T01:11:57.979Z,17.34
2018-09-05T01:12:57.990Z,17.38
2018-09-05T01:13:57.994Z,17.39
2018-09-05T01:14:57.981Z,17.39
2018-09-05T01:15:57.973Z,17.34
2018-09-05T01:16:57.960Z,17.36
2018-09-05T01:17:57.918Z,17.38
2018-09-05T01:18:57.889Z,17.31
2018-09-05T01:19:57.897Z,17.26
2018-09-05T01:20:58.071Z,17.27
2018-09-05T01:21:57.888Z,17.29
2018-09-05T01:22:57.854Z,17.23
2018-09-05T01:23:57.856Z,17.24
2018-09-05T01:24:57.918Z,17.27
2018-09-05T01:25:57.912Z,17.20
2018-09-05T01:26:57.900Z,17.23
2018-09-05T01:27:57.830Z,17.33
2018-09-05T01:28:57.799Z,17.19
2018-09-05T01:29:57.812Z,17.15
2018-09-05T01:30:57.871Z,17.19
2018-09-05T01:31:57.756Z,17.06
2018-09-05T01:32:57.806Z,17.11
2018-09-05T01:33:57.892Z,17.11
2018-09-05T01:34:57.709Z,17.11
2018-09-05T01:35:57.720Z,17.05
2018-09-05T01:36:57.803Z,17.04
2018-09-05T01:37:57.819Z,17.04
2018-09-05T01:38:57.759Z,17.01
2018-09-05T01:39:57.740Z,17.05
2018-09-05T01:40:57.661Z,17.06
2018-09-05T01:41:57.649Z,17.11
2018-09-05T01:42:57.639Z,17.06
2018-09-05T01:43:57.609Z,17.08
2018-09-05T01:44:57.856Z,17.05
2018-09-05T01:45:57.679Z,17.06
2018-09-05T01:46:57.610Z,16.97
2018-09-05T01:47:57.597Z,16.86
2018-09-05T01:48:57.613Z,16.97
2018-09-05T01:49:57.574Z,16.87
2018-09-05T01:50:57.583Z,16.96
2018-09-05T01:51:57.578Z,16.89
2018-09-05T01:52:57.547Z,16.83
2018-09-05T01:53:58.707Z,16.84
2018-09-05T01:54:59.605Z,16.84
2018-09-05T01:55:59.468Z,16.83
2018-09-05T01:56:58.625Z,16.86
2018-09-05T01:57:58.276Z,16.76
2018-09-05T01:58:58.986Z,16.86
2018-09-05T01:59:58.456Z,16.83
2018-09-05T02:00:57.504Z,16.81
2018-09-05T02:01:57.458Z,16.76
2018-09-05T02:02:57.420Z,16.76
2018-09-05T02:03:57.404Z,16.74
2018-09-05T02:04:57.418Z,16.71
2018-09-05T02:05:57.403Z,16.75
2018-09-05T02:06:57.365Z,16.64
2018-09-05T02:07:57.358Z,16.66
2018-09-05T02:08:57.372Z,16.68
2018-09-05T02:09:57.374Z,16.65
2018-09-05T02:10:57.321Z,16.68
2018-09-05T02:11:57.304Z,16.64
2018-09-05T02:12:57.317Z,16.66
2018-09-05T02:13:57.304Z,16.75
2018-09-05T02:14:57.295Z,16.69
2018-09-05T02:15:57.270Z,16.68
2018-09-05T02:16:57.253Z,16.64
2018-09-05T02:17:57.223Z,16.61
2018-09-05T02:18:57.214Z,16.61
2018-09-05T02:19:57.236Z,16.61
2018-09-05T02:20:57.225Z,16.58
2018-09-05T02:21:57.183Z,16.54
2018-09-05T02:22:57.174Z,16.54
2018-09-05T02:23:57.163Z,16.61
2018-09-05T02:24:57.166Z,16.54
2018-09-05T02:25:57.159Z,16.50
2018-09-05T02:26:57.145Z,16.53
2018-09-05T02:27:57.118Z,16.57
2018-09-05T02:28:57.105Z,16.51
2018-09-05T02:29:57.094Z,16.53
2018-09-05T02:30:57.086Z,16.50
2018-09-05T02:31:57.089Z,16.43
2018-09-05T02:32:57.090Z,16.42
2018-09-05T02:33:57.051Z,16.42
2018-09-05T02:34:57.045Z,16.53
2018-09-05T02:35:57.041Z,16.49
2018-09-05T02:36:57.024Z,16.49
2018-09-05T02:37:57.014Z,16.42
2018-09-05T02:38:57.015Z,16.47
2018-09-05T02:39:57.007Z,16.47
2018-09-05T02:40:57.091Z,16.49
2018-09-05T02:41:56.955Z,16.38
2018-09-05T02:42:56.946Z,16.43
2018-09-05T02:43:56.945Z,16.35
2018-09-05T02:44:56.950Z,16.35
2018-09-05T02:45:56.911Z,16.33
2018-09-05T02:46:56.900Z,16.35
2018-09-05T02:47:56.912Z,16.35
2018-09-05T02:48:56.880Z,16.39
2018-09-05T02:49:56.865Z,16.38
2018-09-05T02:50:56.908Z,16.31
2018-09-05T02:51:56.842Z,16.28
2018-09-05T02:52:56.839Z,16.29
2018-09-05T02:53:56.822Z,16.26
2018-09-05T02:54:56.810Z,16.26
2018-09-05T02:55:56.801Z,16.28
2018-09-05T02:56:56.809Z,16.20
2018-09-05T02:57:56.786Z,16.13
2018-09-05T02:58:56.773Z,16.23
2018-09-05T02:59:56.752Z,16.10
2018-09-05T03:00:56.752Z,16.16
2018-09-05T03:01:56.735Z,16.16
2018-09-05T03:02:56.741Z,16.20
2018-09-05T03:03:56.739Z,16.13
2018-09-05T03:04:56.703Z,16.20
2018-09-05T03:05:56.687Z,16.12
2018-09-05T03:06:56.671Z,16.20
2018-09-05T03:07:56.662Z,16.15
2018-09-05T03:08:56.680Z,16.16
2018-09-05T03:09:56.641Z,16.15
2018-09-05T03:10:56.664Z,16.12
2018-09-05T03:11:56.631Z,16.15
2018-09-05T03:12:56.645Z,16.21
2018-09-05T03:13:56.607Z,16.08
2018-09-05T03:14:56.627Z,16.12
2018-09-05T03:15:56.573Z,16.12
2018-09-05T03:16:56.562Z,16.10
2018-09-05T03:17:56.549Z,16.02
2018-09-05T03:18:56.541Z,16.13
2018-09-05T03:19:56.537Z,16.00
2018-09-05T03:20:56.534Z,16.04
2018-09-05T03:21:56.504Z,15.95
2018-09-05T03:22:56.497Z,16.04
2018-09-05T03:23:56.482Z,15.90
2018-09-05T03:24:56.469Z,15.92
2018-09-05T03:25:56.472Z,15.86
2018-09-05T03:26:56.473Z,15.91
2018-09-05T03:27:56.482Z,15.90
2018-09-05T03:28:56.429Z,15.88
2018-09-05T03:29:56.422Z,15.95
2018-09-05T03:30:56.406Z,15.83
2018-09-05T03:31:56.392Z,15.88
2018-09-05T03:32:56.438Z,15.80
2018-09-05T03:33:56.368Z,15.79
2018-09-05T03:34:56.358Z,15.90
2018-09-05T03:35:56.354Z,15.88
2018-09-05T03:36:56.337Z,15.91
2018-09-05T03:37:56.327Z,15.86
2018-09-05T03:38:56.337Z,15.94
2018-09-05T03:39:56.334Z,15.92
2018-09-05T03:40:56.305Z,15.83
2018-09-05T03:41:56.286Z,15.82
2018-09-05T03:42:56.268Z,15.98
2018-09-05T03:43:56.259Z,15.91
2018-09-05T03:44:56.271Z,15.88
2018-09-05T03:45:56.236Z,15.86
2018-09-05T03:46:56.225Z,15.92
2018-09-05T03:47:56.211Z,15.94
2018-09-05T03:48:56.221Z,15.86
2018-09-05T03:49:56.188Z,15.83
2018-09-05T03:50:56.211Z,15.76
2018-09-05T03:51:56.175Z,15.77
2018-09-05T03:52:56.157Z,15.72
2018-09-05T03:53:56.149Z,15.76
2018-09-05T03:54:56.148Z,15.75
2018-09-05T03:55:56.122Z,15.65
2018-09-05T03:56:56.135Z,15.64
2018-09-05T03:57:56.096Z,15.65
2018-09-05T03:58:56.089Z,15.62
2018-09-05T03:59:56.082Z,15.57
2018-09-05T04:00:56.069Z,15.64
2018-09-05T04:01:56.053Z,15.57
2018-09-05T04:02:56.056Z,15.64
2018-09-05T04:03:56.032Z,15.67
2018-09-05T04:04:56.066Z,15.67
2018-09-05T04:05:56.006Z,15.59
2018-09-05T04:06:56.004Z,15.61
2018-09-05T04:07:56.007Z,15.65
2018-09-05T04:08:55.990Z,15.65
2018-09-05T04:09:55.966Z,15.68
2018-09-05T04:10:55.970Z,15.57
2018-09-05T04:11:55.942Z,15.55
2018-09-05T04:12:55.929Z,15.61
2018-09-05T04:13:55.923Z,15.61
2018-09-05T04:14:55.947Z,15.51
2018-09-05T04:15:55.901Z,15.55
2018-09-05T04:16:55.893Z,15.55
2018-09-05T04:17:55.876Z,15.47
2018-09-05T04:18:55.859Z,15.47
2018-09-05T04:19:55.851Z,15.43
2018-09-05T04:20:55.871Z,15.42
2018-09-05T04:21:55.832Z,15.39
2018-09-05T04:22:55.818Z,15.39
2018-09-05T04:23:55.808Z,15.36
2018-09-05T04:24:55.821Z,15.39
2018-09-05T04:25:55.796Z,15.33
2018-09-05T04:26:55.808Z,15.44
2018-09-05T04:27:55.757Z,15.36
2018-09-05T04:28:55.745Z,15.35
2018-09-05T04:29:55.795Z,15.37
2018-09-05T04:30:55.737Z,15.36
2018-09-05T04:31:55.753Z,15.24
2018-09-05T04:32:55.737Z,15.33
2018-09-05T04:33:55.696Z,15.29
2018-09-05T04:34:55.679Z,15.28
2018-09-05T04:35:55.691Z,15.24
2018-09-05T04:36:55.663Z,15.27
2018-09-05T04:37:55.686Z,15.36
2018-09-05T04:38:55.652Z,15.39
2018-09-05T04:39:55.629Z,15.35
2018-09-05T04:40:55.656Z,15.36
2018-09-05T04:41:55.602Z,15.25
2018-09-05T04:42:55.612Z,15.28
2018-09-05T04:43:55.584Z,15.29
2018-09-05T04:44:55.585Z,15.27
2018-09-05T04:45:55.565Z,15.27
2018-09-05T04:46:55.552Z,15.29
2018-09-05T04:47:55.540Z,15.27
2018-09-05T04:48:55.557Z,15.21
2018-09-05T04:49:55.509Z,15.28
2018-09-05T04:50:55.528Z,15.15
2018-09-05T04:51:55.509Z,15.18
2018-09-05T04:52:55.478Z,15.19
2018-09-05T04:53:55.484Z,15.21
2018-09-05T04:54:55.466Z,15.19
2018-09-05T04:55:55.467Z,15.22
2018-09-05T04:56:55.459Z,15.19
2018-09-05T04:57:55.426Z,15.19
2018-09-05T04:58:55.413Z,15.19
2018-09-05T04:59:55.428Z,15.22
2018-09-05T05:00:55.387Z,15.24
2018-09-05T05:01:55.376Z,15.09
2018-09-05T05:02:55.395Z,15.19
2018-09-05T05:03:55.385Z,15.09
2018-09-05T05:04:55.342Z,15.11
2018-09-05T05:05:55.455Z,15.18
2018-09-05T05:06:55.325Z,15.22
2018-09-05T05:07:55.323Z,15.09
2018-09-05T05:08:55.322Z,15.19
2018-09-05T05:09:55.286Z,15.24
2018-09-05T05:10:55.278Z,15.15
2018-09-05T05:11:55.286Z,15.09
2018-09-05T05:12:55.269Z,15.17
2018-09-05T05:13:55.302Z,15.14
2018-09-05T05:14:55.256Z,15.09
2018-09-05T05:15:55.215Z,15.09
2018-09-05T05:16:55.247Z,15.17
2018-09-05T05:17:55.205Z,15.18
2018-09-05T05:18:55.196Z,15.11
2018-09-05T05:19:55.194Z,15.11
2018-09-05T05:20:55.191Z,15.14
2018-09-05T05:21:55.150Z,15.11
2018-09-05T05:22:55.151Z,15.09
2018-09-05T05:23:55.137Z,15.18
2018-09-05T05:24:55.125Z,15.19
2018-09-05T05:25:55.108Z,15.25
2018-09-05T05:26:55.118Z,15.11
2018-09-05T05:27:55.101Z,15.11
2018-09-05T05:28:55.139Z,15.24
2018-09-05T05:29:55.068Z,15.19
2018-09-05T05:30:55.065Z,15.21
2018-09-05T05:31:55.055Z,15.25
2018-09-05T05:32:55.099Z,15.21
2018-09-05T05:33:55.017Z,15.18
2018-09-05T05:34:55.013Z,15.25
2018-09-05T05:35:55.003Z,15.21
2018-09-05T05:36:54.989Z,15.25
2018-09-05T05:37:55.978Z,15.22
2018-09-05T05:38:54.984Z,15.24
2018-09-05T05:39:54.954Z,15.15
2018-09-05T05:40:54.953Z,15.21
2018-09-05T05:41:54.945Z,15.28
2018-09-05T05:42:54.929Z,15.31
2018-09-05T05:43:54.904Z,15.28
2018-09-05T05:44:54.916Z,15.25
2018-09-05T05:45:54.892Z,15.25
2018-09-05T05:46:54.883Z,15.37
2018-09-05T05:47:54.870Z,15.28
2018-09-05T05:48:54.849Z,15.36
2018-09-05T05:49:54.853Z,15.36
2018-09-05T05:50:54.850Z,15.33
2018-09-05T05:51:54.812Z,15.42
2018-09-05T05:52:54.833Z,15.35
2018-09-05T05:53:54.805Z,15.31
2018-09-05T05:54:54.791Z,15.46
2018-09-05T05:55:54.774Z,15.39
2018-09-05T05:56:54.778Z,15.35
2018-09-05T05:57:54.745Z,15.46
2018-09-05T05:58:54.734Z,15.52
2018-09-05T05:59:54.723Z,15.47
2018-09-05T06:00:54.819Z,15.47
2018-09-05T06:01:54.703Z,15.44
2018-09-05T06:02:54.730Z,15.47
2018-09-05T06:03:54.711Z,15.57
2018-09-05T06:04:54.664Z,15.64
2018-09-05T06:05:54.717Z,15.57
2018-09-05T06:06:54.640Z,15.51
2018-09-05T06:07:54.628Z,15.47
2018-09-05T06:08:54.638Z,15.47
2018-09-05T06:09:54.611Z,15.55
2018-09-05T06:10:54.600Z,15.55
2018-09-05T06:11:54.583Z,15.59
2018-09-05T06:12:54.572Z,15.57
2018-09-05T06:13:54.568Z,15.52
2018-09-05T06:14:54.605Z,15.68
2018-09-05T06:15:54.538Z,15.65
2018-09-05T06:16:54.533Z,15.67
2018-09-05T06:17:54.588Z,15.64
2018-09-05T06:18:54.508Z,15.65
2018-09-05T06:19:54.502Z,15.77
2018-09-05T06:20:54.542Z,15.72
2018-09-05T06:21:54.490Z,15.82
2018-09-05T06:22:54.474Z,15.75
2018-09-05T06:23:54.512Z,15.86
2018-09-05T06:24:54.443Z,15.95
2018-09-05T06:25:54.435Z,15.92
2018-09-05T06:26:54.435Z,16.00
2018-09-05T06:27:54.510Z,15.97
2018-09-05T06:28:54.404Z,15.95
2018-09-05T06:29:54.389Z,16.05
2018-09-05T06:30:54.411Z,16.04
2018-09-05T06:31:54.365Z,16.10
2018-09-05T06:32:54.391Z,16.08
2018-09-05T06:33:54.340Z,16.09
2018-09-05T06:34:54.324Z,16.12
2018-09-05T06:35:54.311Z,16.10
2018-09-05T06:36:54.336Z,16.26
2018-09-05T06:37:54.307Z,16.24
2018-09-05T06:38:54.353Z,16.24
2018-09-05T06:39:54.272Z,16.35
2018-09-05T06:40:54.256Z,16.35
2018-09-05T06:41:54.252Z,16.42
2018-09-05T06:42:54.270Z,16.54
2018-09-05T06:43:54.237Z,16.54
2018-09-05T06:44:54.271Z,16.56
2018-09-05T06:45:54.205Z,16.61
2018-09-05T06:46:54.207Z,16.65
2018-09-05T06:47:54.180Z,16.65
2018-09-05T06:48:54.189Z,16.64
2018-09-05T06:49:54.159Z,16.87
2018-09-05T06:50:54.172Z,16.87
2018-09-05T06:51:54.152Z,16.97
2018-09-05T06:52:54.131Z,17.02
2018-09-05T06:53:54.112Z,16.96
2018-09-05T06:54:54.099Z,16.99
2018-09-05T06:55:54.085Z,17.02
2018-09-05T06:56:54.117Z,17.01
2018-09-05T06:57:54.082Z,16.97
2018-09-05T06:58:54.056Z,16.96
2018-09-05T06:59:54.051Z,16.91
2018-09-05T07:00:54.031Z,17.04
2018-09-05T07:01:54.018Z,17.02
2018-09-05T07:02:54.042Z,17.02
2018-09-05T07:03:54.029Z,17.05
2018-09-05T07:04:53.986Z,17.05
2018-09-05T07:05:53.979Z,17.08
2018-09-05T07:06:54.036Z,17.12
2018-09-05T07:07:53.967Z,17.19
2018-09-05T07:08:53.966Z,17.22
2018-09-05T07:09:53.948Z,17.15
2018-09-05T07:10:53.924Z,17.31
2018-09-05T07:11:53.909Z,17.27
2018-09-05T07:12:53.905Z,17.27
2018-09-05T07:13:53.886Z,17.29
2018-09-05T07:14:53.893Z,17.41
2018-09-05T07:15:53.871Z,17.52
2018-09-05T07:16:53.861Z,17.51
2018-09-05T07:17:53.847Z,17.60
2018-09-05T07:18:53.872Z,17.52
2018-09-05T07:19:53.829Z,17.60
2018-09-05T07:21:05.681Z,17.59
2018-09-05T07:21:53.808Z,17.72
2018-09-05T07:22:53.789Z,17.65
2018-09-05T07:23:53.782Z,17.76
2018-09-05T07:24:53.798Z,17.60
2018-09-05T07:25:53.757Z,17.64
2018-09-05T07:26:53.766Z,17.71
2018-09-05T07:27:53.742Z,17.76
2018-09-05T07:28:53.746Z,17.76
2018-09-05T07:29:53.713Z,17.71
2018-09-05T07:30:53.769Z,17.76
2018-09-05T07:31:53.685Z,17.70
2018-09-05T07:32:53.706Z,17.72
2018-09-05T07:33:53.674Z,17.86
2018-09-05T07:34:53.659Z,17.86
2018-09-05T07:35:53.645Z,17.83
2018-09-05T07:36:53.662Z,18.01
2018-09-05T07:37:53.623Z,17.92
2018-09-05T07:38:53.624Z,18.00
2018-09-05T07:39:53.600Z,18.13
2018-09-05T07:40:53.580Z,18.16
2018-09-05T07:41:53.570Z,18.08
2018-09-05T07:42:53.556Z,18.25
2018-09-05T07:43:53.552Z,18.20
2018-09-05T07:44:53.557Z,18.37
2018-09-05T07:45:53.525Z,18.33
2018-09-05T07:46:53.512Z,18.38
2018-09-05T07:47:53.499Z,18.43
2018-09-05T07:48:53.503Z,18.41
2018-09-05T07:49:53.479Z,18.53
2018-09-05T07:50:53.503Z,18.52
2018-09-05T07:51:53.457Z,18.56
2018-09-05T07:52:53.452Z,18.65
2018-09-05T07:53:53.433Z,18.65
2018-09-05T07:54:53.434Z,18.75
2018-09-05T07:55:53.442Z,18.78
2018-09-05T07:56:53.427Z,18.81
2018-09-05T07:57:53.391Z,18.88
2018-09-05T07:58:53.381Z,18.98
2018-09-05T07:59:53.403Z,19.08
2018-09-05T08:00:53.380Z,19.15
2018-09-05T08:01:53.357Z,19.18
2018-09-05T08:02:53.387Z,19.31
2018-09-05T08:03:53.349Z,19.22
2018-09-05T08:04:53.320Z,19.41
2018-09-05T08:05:53.299Z,19.33
2018-09-05T08:06:53.296Z,19.51
2018-09-05T08:07:53.287Z,19.55
2018-09-05T08:08:53.299Z,19.52
2018-09-05T08:09:53.268Z,19.64
2018-09-05T08:10:53.276Z,19.73
2018-09-05T08:11:53.331Z,19.73
2018-09-05T08:12:53.223Z,19.84
2018-09-05T08:13:53.215Z,19.91
2018-09-05T08:14:53.227Z,20.06
2018-09-05T08:15:53.202Z,20.09
2018-09-05T08:16:53.178Z,20.21
2018-09-05T08:17:53.221Z,20.29
2018-09-05T08:18:53.160Z,20.43
2018-09-05T08:19:53.155Z,20.50
2018-09-05T08:20:53.176Z,20.43
2018-09-05T08:21:53.161Z,20.48
2018-09-05T08:22:53.115Z,20.59
2018-09-05T08:23:53.102Z,20.75
2018-09-05T08:24:53.142Z,20.78
2018-09-05T08:25:53.109Z,20.87
2018-09-05T08:26:53.089Z,20.96
2018-09-05T08:27:53.069Z,21.09
2018-09-05T08:28:53.101Z,21.07
2018-09-05T08:29:53.088Z,21.37
2018-09-05T08:30:53.021Z,21.42
2018-09-05T08:31:53.036Z,21.45
2018-09-05T08:32:53.031Z,21.66
2018-09-05T08:33:53.005Z,21.60
2018-09-05T08:34:53.141Z,21.67
2018-09-05T08:35:53.325Z,21.89
2018-09-05T08:36:53.142Z,21.76
2018-09-05T08:37:53.056Z,21.89
2018-09-05T08:38:53.094Z,21.91
2018-09-05T08:39:52.922Z,21.93
2018-09-05T08:40:52.924Z,21.95
2018-09-05T08:41:52.957Z,22.07
2018-09-05T08:42:52.964Z,21.95
2018-09-05T08:43:53.009Z,22.13
2018-09-05T08:44:53.173Z,22.20
2018-09-05T08:45:53.162Z,22.17
2018-09-05T08:46:52.913Z,22.17
2018-09-05T08:47:52.965Z,22.30
2018-09-05T08:48:52.839Z,22.28
2018-09-05T08:49:52.809Z,22.28
2018-09-05T08:50:52.833Z,22.36
2018-09-05T08:51:52.789Z,22.39
2018-09-05T08:52:52.861Z,22.50
2018-09-05T08:53:52.780Z,22.54
2018-09-05T08:54:52.765Z,22.57
2018-09-05T08:55:52.785Z,22.62
2018-09-05T08:56:52.771Z,22.55
2018-09-05T08:57:52.724Z,22.57
2018-09-05T08:58:52.800Z,22.69
2018-09-05T08:59:52.698Z,22.68
2018-09-05T09:01:00.252Z,22.76
2018-09-05T09:01:52.676Z,22.80
2018-09-05T09:02:52.720Z,22.98
2018-09-05T09:03:52.682Z,23.06
2018-09-05T09:04:52.715Z,22.99
2018-09-05T09:05:52.637Z,23.08
2018-09-05T09:06:52.644Z,23.13
2018-09-05T09:07:52.619Z,23.28
2018-09-05T09:08:52.613Z,23.25
2018-09-05T09:09:52.583Z,23.28
2018-09-05T09:10:52.571Z,23.32
2018-09-05T09:11:52.577Z,23.27
2018-09-05T09:12:52.591Z,23.40
2018-09-05T09:13:52.549Z,23.43
2018-09-05T09:14:52.558Z,23.37
2018-09-05T09:15:52.531Z,23.43
2018-09-05T09:16:52.516Z,23.50
2018-09-05T09:17:52.540Z,23.50
2018-09-05T09:18:52.482Z,23.48
2018-09-05T09:19:52.468Z,23.51
2018-09-05T09:20:52.472Z,23.55
2018-09-05T09:21:52.446Z,23.51
2018-09-05T09:22:52.434Z,23.56
2018-09-05T09:23:52.435Z,23.65
2018-09-05T09:24:52.413Z,23.71
2018-09-05T09:25:52.428Z,23.78
2018-09-05T09:26:52.416Z,23.76
2018-09-05T09:27:52.400Z,23.78
2018-09-05T09:28:52.377Z,23.81
2018-09-05T09:29:52.355Z,23.76
2018-09-05T09:30:52.347Z,23.88
2018-09-05T09:31:52.335Z,23.91
2018-09-05T09:32:52.342Z,23.87
2018-09-05T09:33:52.312Z,23.88
2018-09-05T09:34:52.297Z,23.88
2018-09-05T09:35:52.314Z,23.84
2018-09-05T09:36:52.276Z,23.88
2018-09-05T09:37:52.267Z,24.02
2018-09-05T09:38:52.279Z,24.02
2018-09-05T09:39:52.242Z,24.08
2018-09-05T09:40:52.241Z,24.14
2018-09-05T09:41:52.245Z,24.14
2018-09-05T09:42:52.209Z,24.35
2018-09-05T09:43:52.197Z,24.35
2018-09-05T09:44:52.200Z,24.33
2018-09-05T09:45:52.174Z,24.43
2018-09-05T09:46:52.162Z,24.40
2018-09-05T09:47:52.183Z,24.38
2018-09-05T09:48:52.144Z,24.39
2018-09-05T09:49:52.130Z,24.43
2018-09-05T09:50:52.136Z,24.51
2018-09-05T09:51:52.111Z,24.54
2018-09-05T09:52:52.097Z,24.68
2018-09-05T09:53:52.091Z,24.58
2018-09-05T09:54:52.092Z,24.66
2018-09-05T09:55:52.062Z,24.69
2018-09-05T09:56:52.074Z,24.73
2018-09-05T09:57:52.045Z,24.78
2018-09-05T09:58:52.037Z,24.86
2018-09-05T09:59:52.020Z,24.93
2018-09-05T10:00:52.005Z,24.86
2018-09-05T10:01:52.026Z,24.95
2018-09-05T10:02:52.004Z,25.06
2018-09-05T10:03:52.027Z,25.10
2018-09-05T10:04:52.005Z,25.17
2018-09-05T10:05:51.950Z,25.29
2018-09-05T10:06:52.006Z,25.40
2018-09-05T10:07:51.959Z,25.35
2018-09-05T10:08:51.928Z,25.36
2018-09-05T10:09:52.000Z,25.26
2018-09-05T10:10:51.893Z,25.36
2018-09-05T10:11:51.885Z,25.44
2018-09-05T10:12:51.876Z,25.38
2018-09-05T10:13:51.859Z,25.46
2018-09-05T10:14:51.955Z,25.60
2018-09-05T10:15:51.840Z,25.60
2018-09-05T10:16:51.830Z,25.54
2018-09-05T10:17:51.820Z,25.63
2018-09-05T10:18:51.811Z,25.65
2018-09-05T10:19:51.793Z,25.59
2018-09-05T10:20:51.867Z,25.65
2018-09-05T10:21:51.773Z,25.68
2018-09-05T10:22:51.758Z,25.73
2018-09-05T10:23:51.751Z,25.80
2018-09-05T10:24:51.738Z,25.88
2018-09-05T10:25:51.725Z,25.93
2018-09-05T10:26:51.747Z,25.98
2018-09-05T10:27:51.705Z,25.98
2018-09-05T10:28:51.694Z,25.81
2018-09-05T10:29:51.682Z,25.95
2018-09-05T10:30:51.676Z,25.81
2018-09-05T10:31:51.870Z,25.72
2018-09-05T10:32:51.689Z,25.85
2018-09-05T10:33:51.649Z,25.90
2018-09-05T10:34:51.625Z,25.93
2018-09-05T10:35:51.618Z,25.96
2018-09-05T10:36:51.610Z,25.99
2018-09-05T10:37:51.594Z,25.91
2018-09-05T10:38:51.602Z,25.95
2018-09-05T10:39:51.579Z,25.99
2018-09-05T10:40:51.564Z,26.03
2018-09-05T10:41:51.548Z,26.06
2018-09-05T10:42:51.539Z,26.13
2018-09-05T10:43:51.529Z,26.18
2018-09-05T10:44:51.538Z,26.21
2018-09-05T10:45:51.524Z,26.25
2018-09-05T10:46:51.493Z,26.40
2018-09-05T10:47:51.482Z,26.45
2018-09-05T10:48:51.473Z,26.43
2018-09-05T10:49:51.464Z,26.55
2018-09-05T10:50:51.464Z,26.48
2018-09-05T10:51:51.598Z,26.45
2018-09-05T10:52:51.436Z,26.53
2018-09-05T10:53:51.416Z,26.58
2018-09-05T10:54:51.406Z,26.63
2018-09-05T10:55:51.394Z,26.45
2018-09-05T10:56:51.398Z,26.44
2018-09-05T10:57:51.409Z,26.68
2018-09-05T10:58:51.361Z,26.66
2018-09-05T10:59:51.352Z,26.70
2018-09-05T11:00:51.339Z,26.68
2018-09-05T11:01:51.331Z,26.68
2018-09-05T11:02:51.333Z,26.68
2018-09-05T11:03:51.306Z,26.75
2018-09-05T11:04:51.295Z,26.71
2018-09-05T11:05:51.290Z,26.65
2018-09-05T11:06:51.271Z,26.66
2018-09-05T11:07:51.263Z,26.73
2018-09-05T11:08:51.261Z,26.77
2018-09-05T11:09:51.244Z,26.74
2018-09-05T11:10:51.396Z,26.81
2018-09-05T11:11:51.252Z,26.88
2018-09-05T11:12:51.209Z,26.96
2018-09-05T11:13:51.194Z,26.88
2018-09-05T11:14:51.187Z,26.97
2018-09-05T11:15:51.172Z,27.10
2018-09-05T11:16:51.178Z,27.14
2018-09-05T11:17:51.165Z,27.25
2018-09-05T11:18:51.143Z,26.97
2018-09-05T11:19:51.129Z,26.66
2018-09-05T11:20:51.118Z,26.66
2018-09-05T11:21:51.106Z,26.78
2018-09-05T11:22:51.107Z,26.90
2018-09-05T11:23:51.084Z,26.88
2018-09-05T11:24:51.092Z,26.88
2018-09-05T11:25:51.064Z,26.97
2018-09-05T11:26:51.051Z,27.07
2018-09-05T11:27:51.040Z,27.11
2018-09-05T11:28:51.043Z,27.14
2018-09-05T11:29:51.019Z,27.02
2018-09-05T11:30:51.021Z,26.97
2018-09-05T11:31:50.994Z,27.10
2018-09-05T11:32:50.985Z,27.07
2018-09-05T11:33:50.973Z,27.10
2018-09-05T11:34:50.982Z,27.00
2018-09-05T11:35:50.955Z,27.10
2018-09-05T11:36:50.948Z,26.99
2018-09-05T11:37:50.949Z,27.11
2018-09-05T11:38:50.919Z,27.18
2018-09-05T11:39:50.907Z,27.32
2018-09-05T11:40:50.920Z,27.33
2018-09-05T11:41:50.884Z,27.45
2018-09-05T11:42:50.888Z,27.20
2018-09-05T11:43:50.888Z,27.25
2018-09-05T11:44:50.855Z,27.32
2018-09-05T11:45:50.838Z,27.40
2018-09-05T11:46:50.848Z,27.39
2018-09-05T11:47:50.832Z,27.47
2018-09-05T11:48:50.806Z,27.52
2018-09-05T11:49:50.801Z,27.58
2018-09-05T11:50:50.808Z,27.68
2018-09-05T11:51:50.783Z,27.70
2018-09-05T11:52:50.772Z,27.74
2018-09-05T11:53:50.755Z,27.83
2018-09-05T11:54:50.739Z,27.85
2018-09-05T11:55:50.732Z,27.85
2018-09-05T11:56:50.746Z,27.89
2018-09-05T11:57:50.724Z,27.98
2018-09-05T11:58:50.695Z,27.95
2018-09-05T11:59:50.687Z,27.98
2018-09-05T12:00:50.676Z,28.00
2018-09-05T12:01:50.663Z,27.96
2018-09-05T12:02:50.683Z,27.96
2018-09-05T12:03:50.659Z,27.86
2018-09-05T12:04:50.666Z,27.82
2018-09-05T12:05:50.620Z,27.80
2018-09-05T12:06:50.608Z,27.93
2018-09-05T12:07:50.602Z,27.82
2018-09-05T12:08:50.603Z,27.80
2018-09-05T12:09:50.589Z,27.55
2018-09-05T12:10:50.562Z,27.58
2018-09-05T12:11:50.551Z,27.73
2018-09-05T12:12:50.555Z,27.75
2018-09-05T12:13:50.529Z,27.78
2018-09-05T12:14:50.548Z,27.70
2018-09-05T12:15:50.508Z,27.54
2018-09-05T12:16:50.500Z,27.55
2018-09-05T12:17:50.486Z,27.58
2018-09-05T12:18:50.490Z,27.48
2018-09-05T12:19:50.461Z,27.45
2018-09-05T12:20:50.471Z,27.33
2018-09-05T12:21:50.452Z,27.25
2018-09-05T12:22:50.434Z,27.27
2018-09-05T12:23:50.417Z,27.27
2018-09-05T12:24:50.423Z,27.39
2018-09-05T12:25:50.400Z,27.47
2018-09-05T12:26:50.421Z,27.51
2018-09-05T12:27:50.374Z,27.65
2018-09-05T12:28:50.370Z,27.64
2018-09-05T12:29:50.352Z,27.60
2018-09-05T12:30:50.357Z,27.58
2018-09-05T12:31:50.344Z,27.37
2018-09-05T12:32:50.325Z,27.44
2018-09-05T12:33:50.308Z,27.35
2018-09-05T12:34:50.298Z,27.30
2018-09-05T12:35:50.285Z,27.26
2018-09-05T12:36:50.291Z,27.27
2018-09-05T12:37:50.265Z,27.30
2018-09-05T12:38:50.256Z,27.36
2018-09-05T12:39:50.291Z,27.51
2018-09-05T12:40:50.234Z,27.49
2018-09-05T12:41:50.222Z,27.39
2018-09-05T12:42:50.210Z,27.29
2018-09-05T12:43:50.200Z,27.42
2018-09-05T12:44:50.339Z,27.29
2018-09-05T12:45:50.238Z,27.35
2018-09-05T12:46:50.178Z,27.33
2018-09-05T12:47:50.153Z,27.42
2018-09-05T12:48:50.143Z,27.36
2018-09-05T12:49:50.130Z,27.25
2018-09-05T12:50:50.120Z,27.20
2018-09-05T12:51:50.139Z,27.26
2018-09-05T12:52:50.112Z,27.20